sensor_id;sensor_type;location;lat;lon;timestamp;temperature;humidity
35559;DHT22;21661;50.794;-1.066;2024-02-23T00:00:03;7.40;99.90
35559;DHT22;21661;50.794;-1.066;2024-02-23T00:02:31;7.40;99.90
35559;DHT22;21661;50.794;-1.066;2024-02-23T00:04:57;7.40;99.90
35559;DHT22;21661;50.794;-1.066;2024-02-23T00:07:22;7.40;99.90
35559;DHT22;21661;50.794;-1.066;2024-02-23T00:09:48;7.40;99.90
35559;DHT22;21661;50.794;-1.066;2024-02-23T00:12:14;7.40;99.90
35559;DHT22;21661;50.794;-1.066;2024-02-23T00:14:39;7.30;99.90
35559;DHT22;21661;50.794;-1.066;2024-02-23T00:17:05;7.40;99.90
35559;DHT22;21661;50.794;-1.066;2024-02-23T00:19:31;7.30;99.90
35559;DHT22;21661;50.794;-1.066;2024-02-23T00:21:57;7.40;99.90
35559;DHT22;21661;50.794;-1.066;2024-02-23T00:24:27;7.40;99.90
35559;DHT22;21661;50.794;-1.066;2024-02-23T00:26:53;7.40;99.90
35559;DHT22;21661;50.794;-1.066;2024-02-23T00:29:19;7.40;99.90
35559;DHT22;21661;50.794;-1.066;2024-02-23T00:31:44;7.40;99.90
35559;DHT22;21661;50.794;-1.066;2024-02-23T00:34:13;7.40;99.90
35559;DHT22;21661;50.794;-1.066;2024-02-23T00:36:40;7.40;99.90
35559;DHT22;21661;50.794;-1.066;2024-02-23T00:39:07;7.40;99.90
35559;DHT22;21661;50.794;-1.066;2024-02-23T00:41:33;7.40;99.90
35559;DHT22;21661;50.794;-1.066;2024-02-23T00:43:59;7.40;99.90
35559;DHT22;21661;50.794;-1.066;2024-02-23T00:46:25;7.40;99.90
35559;DHT22;21661;50.794;-1.066;2024-02-23T00:48:50;7.40;99.90
35559;DHT22;21661;50.794;-1.066;2024-02-23T00:51:16;7.50;99.90
35559;DHT22;21661;50.794;-1.066;2024-02-23T00:53:42;7.40;99.90
35559;DHT22;21661;50.794;-1.066;2024-02-23T00:56:07;7.20;99.90
35559;DHT22;21661;50.794;-1.066;2024-02-23T00:58:33;7.00;99.90
35559;DHT22;21661;50.794;-1.066;2024-02-23T01:00:59;6.90;99.90
35559;DHT22;21661;50.794;-1.066;2024-02-23T01:03:25;6.90;99.90
35559;DHT22;21661;50.794;-1.066;2024-02-23T01:05:50;6.70;99.90
35559;DHT22;21661;50.794;-1.066;2024-02-23T01:08:16;6.70;99.90
35559;DHT22;21661;50.794;-1.066;2024-02-23T01:10:42;6.70;99.90
35559;DHT22;21661;50.794;-1.066;2024-02-23T01:13:07;6.70;99.90
35559;DHT22;21661;50.794;-1.066;2024-02-23T01:15:33;6.70;99.90
35559;DHT22;21661;50.794;-1.066;2024-02-23T01:17:59;6.70;99.90
35559;DHT22;21661;50.794;-1.066;2024-02-23T01:20:25;6.70;99.90
35559;DHT22;21661;50.794;-1.066;2024-02-23T01:22:51;6.70;99.90
35559;DHT22;21661;50.794;-1.066;2024-02-23T01:25:17;6.70;99.90
35559;DHT22;21661;50.794;-1.066;2024-02-23T01:27:43;6.80;99.90
35559;DHT22;21661;50.794;-1.066;2024-02-23T01:30:10;6.80;99.90
35559;DHT22;21661;50.794;-1.066;2024-02-23T01:32:36;6.80;99.90
35559;DHT22;21661;50.794;-1.066;2024-02-23T01:35:06;6.90;99.90
35559;DHT22;21661;50.794;-1.066;2024-02-23T01:37:33;6.90;99.90
35559;DHT22;21661;50.794;-1.066;2024-02-23T01:39:59;7.00;99.90
35559;DHT22;21661;50.794;-1.066;2024-02-23T01:42:26;7.00;99.90
35559;DHT22;21661;50.794;-1.066;2024-02-23T01:44:52;7.00;99.90
35559;DHT22;21661;50.794;-1.066;2024-02-23T01:47:18;7.10;99.90
35559;DHT22;21661;50.794;-1.066;2024-02-23T01:49:45;7.20;99.90
35559;DHT22;21661;50.794;-1.066;2024-02-23T01:52:13;7.20;99.90
35559;DHT22;21661;50.794;-1.066;2024-02-23T01:54:39;7.20;99.90
35559;DHT22;21661;50.794;-1.066;2024-02-23T01:57:05;7.20;99.90
35559;DHT22;21661;50.794;-1.066;2024-02-23T01:59:31;7.20;99.90
35559;DHT22;21661;50.794;-1.066;2024-02-23T02:01:57;7.20;99.90
35559;DHT22;21661;50.794;-1.066;2024-02-23T02:04:23;7.20;99.90
35559;DHT22;21661;50.794;-1.066;2024-02-23T02:06:48;7.20;99.90
35559;DHT22;21661;50.794;-1.066;2024-02-23T02:09:14;7.20;99.90
35559;DHT22;21661;50.794;-1.066;2024-02-23T02:11:50;7.20;99.90
35559;DHT22;21661;50.794;-1.066;2024-02-23T02:14:16;7.20;99.90
35559;DHT22;21661;50.794;-1.066;2024-02-23T02:16:42;7.30;99.90
35559;DHT22;21661;50.794;-1.066;2024-02-23T02:19:09;7.20;99.90
35559;DHT22;21661;50.794;-1.066;2024-02-23T02:21:36;7.10;99.90
35559;DHT22;21661;50.794;-1.066;2024-02-23T02:24:02;7.10;99.90
35559;DHT22;21661;50.794;-1.066;2024-02-23T02:26:29;7.00;99.90
35559;DHT22;21661;50.794;-1.066;2024-02-23T02:28:54;7.10;99.90
35559;DHT22;21661;50.794;-1.066;2024-02-23T02:31:20;7.10;99.90
35559;DHT22;21661;50.794;-1.066;2024-02-23T02:33:45;7.10;99.90
35559;DHT22;21661;50.794;-1.066;2024-02-23T02:36:11;7.20;99.90
35559;DHT22;21661;50.794;-1.066;2024-02-23T02:38:37;7.20;99.90
35559;DHT22;21661;50.794;-1.066;2024-02-23T02:41:03;7.30;99.90
35559;DHT22;21661;50.794;-1.066;2024-02-23T02:43:30;7.30;99.90
35559;DHT22;21661;50.794;-1.066;2024-02-23T02:45:56;7.40;99.90
35559;DHT22;21661;50.794;-1.066;2024-02-23T02:48:22;7.40;99.90
35559;DHT22;21661;50.794;-1.066;2024-02-23T02:50:48;7.40;99.90
35559;DHT22;21661;50.794;-1.066;2024-02-23T02:53:15;7.40;99.90
35559;DHT22;21661;50.794;-1.066;2024-02-23T02:55:44;7.50;99.90
35559;DHT22;21661;50.794;-1.066;2024-02-23T02:58:13;7.50;99.90
35559;DHT22;21661;50.794;-1.066;2024-02-23T03:00:39;7.50;99.90
35559;DHT22;21661;50.794;-1.066;2024-02-23T03:03:05;7.50;99.90
35559;DHT22;21661;50.794;-1.066;2024-02-23T03:05:30;7.60;99.90
35559;DHT22;21661;50.794;-1.066;2024-02-23T03:07:56;7.70;99.90
35559;DHT22;21661;50.794;-1.066;2024-02-23T03:10:22;7.70;99.90
35559;DHT22;21661;50.794;-1.066;2024-02-23T03:12:47;7.70;99.90
35559;DHT22;21661;50.794;-1.066;2024-02-23T03:15:13;7.70;99.90
35559;DHT22;21661;50.794;-1.066;2024-02-23T03:17:39;7.70;99.90
35559;DHT22;21661;50.794;-1.066;2024-02-23T03:20:05;7.60;99.90
35559;DHT22;21661;50.794;-1.066;2024-02-23T03:22:34;7.60;99.90
35559;DHT22;21661;50.794;-1.066;2024-02-23T03:25:00;7.60;99.90
35559;DHT22;21661;50.794;-1.066;2024-02-23T03:27:28;7.50;99.90
35559;DHT22;21661;50.794;-1.066;2024-02-23T03:29:54;7.50;99.90
35559;DHT22;21661;50.794;-1.066;2024-02-23T03:32:20;7.50;99.90
35559;DHT22;21661;50.794;-1.066;2024-02-23T03:34:46;7.40;99.90
35559;DHT22;21661;50.794;-1.066;2024-02-23T03:37:11;7.40;99.90
35559;DHT22;21661;50.794;-1.066;2024-02-23T03:39:37;7.40;99.90
35559;DHT22;21661;50.794;-1.066;2024-02-23T03:42:03;7.30;99.90
35559;DHT22;21661;50.794;-1.066;2024-02-23T03:44:29;7.30;99.90
35559;DHT22;21661;50.794;-1.066;2024-02-23T03:46:55;7.30;99.90
35559;DHT22;21661;50.794;-1.066;2024-02-23T03:49:20;7.30;99.90
35559;DHT22;21661;50.794;-1.066;2024-02-23T03:51:47;7.20;99.90
35559;DHT22;21661;50.794;-1.066;2024-02-23T03:54:12;7.20;99.90
35559;DHT22;21661;50.794;-1.066;2024-02-23T03:56:41;7.10;99.90
35559;DHT22;21661;50.794;-1.066;2024-02-23T03:59:08;7.10;99.90
35559;DHT22;21661;50.794;-1.066;2024-02-23T04:01:36;7.10;99.90
35559;DHT22;21661;50.794;-1.066;2024-02-23T04:04:02;7.10;99.90
35559;DHT22;21661;50.794;-1.066;2024-02-23T04:06:28;7.10;99.90
35559;DHT22;21661;50.794;-1.066;2024-02-23T04:08:53;7.10;99.90
35559;DHT22;21661;50.794;-1.066;2024-02-23T04:11:19;7.10;99.90
35559;DHT22;21661;50.794;-1.066;2024-02-23T04:13:45;7.10;99.90
35559;DHT22;21661;50.794;-1.066;2024-02-23T04:16:10;7.10;99.90
35559;DHT22;21661;50.794;-1.066;2024-02-23T04:18:36;7.10;99.90
35559;DHT22;21661;50.794;-1.066;2024-02-23T04:21:02;7.10;99.90
35559;DHT22;21661;50.794;-1.066;2024-02-23T04:23:27;7.00;99.90
35559;DHT22;21661;50.794;-1.066;2024-02-23T04:25:53;7.10;99.90
35559;DHT22;21661;50.794;-1.066;2024-02-23T04:28:19;7.10;99.90
35559;DHT22;21661;50.794;-1.066;2024-02-23T04:30:45;7.10;99.90
35559;DHT22;21661;50.794;-1.066;2024-02-23T04:33:11;7.10;99.90
35559;DHT22;21661;50.794;-1.066;2024-02-23T04:35:36;7.10;99.90
35559;DHT22;21661;50.794;-1.066;2024-02-23T04:38:02;7.10;99.90
35559;DHT22;21661;50.794;-1.066;2024-02-23T04:40:27;7.10;99.90
35559;DHT22;21661;50.794;-1.066;2024-02-23T04:42:53;7.20;99.90
35559;DHT22;21661;50.794;-1.066;2024-02-23T04:45:19;7.20;99.90
35559;DHT22;21661;50.794;-1.066;2024-02-23T04:47:45;7.20;99.90
35559;DHT22;21661;50.794;-1.066;2024-02-23T04:50:12;7.20;99.90
35559;DHT22;21661;50.794;-1.066;2024-02-23T04:52:38;7.20;99.90
35559;DHT22;21661;50.794;-1.066;2024-02-23T04:55:04;7.20;99.90
35559;DHT22;21661;50.794;-1.066;2024-02-23T04:57:31;7.20;99.90
35559;DHT22;21661;50.794;-1.066;2024-02-23T04:59:57;7.20;99.90
35559;DHT22;21661;50.794;-1.066;2024-02-23T05:02:22;7.20;99.90
35559;DHT22;21661;50.794;-1.066;2024-02-23T05:04:48;7.20;99.90
35559;DHT22;21661;50.794;-1.066;2024-02-23T05:07:13;7.20;99.90
35559;DHT22;21661;50.794;-1.066;2024-02-23T05:09:39;7.20;99.90
35559;DHT22;21661;50.794;-1.066;2024-02-23T05:12:07;7.20;99.90
35559;DHT22;21661;50.794;-1.066;2024-02-23T05:14:33;7.20;99.90
35559;DHT22;21661;50.794;-1.066;2024-02-23T05:16:58;7.20;99.90
35559;DHT22;21661;50.794;-1.066;2024-02-23T05:19:24;7.20;99.90
35559;DHT22;21661;50.794;-1.066;2024-02-23T05:21:49;7.20;99.90
35559;DHT22;21661;50.794;-1.066;2024-02-23T05:24:15;7.10;99.90
35559;DHT22;21661;50.794;-1.066;2024-02-23T05:26:41;7.10;99.90
35559;DHT22;21661;50.794;-1.066;2024-02-23T05:29:07;7.10;99.90
35559;DHT22;21661;50.794;-1.066;2024-02-23T05:31:51;7.10;99.90
35559;DHT22;21661;50.794;-1.066;2024-02-23T05:34:17;7.20;99.90
35559;DHT22;21661;50.794;-1.066;2024-02-23T05:36:44;7.10;99.90
35559;DHT22;21661;50.794;-1.066;2024-02-23T05:39:11;7.20;99.90
35559;DHT22;21661;50.794;-1.066;2024-02-23T05:41:38;7.10;99.90
35559;DHT22;21661;50.794;-1.066;2024-02-23T05:44:04;7.10;99.90
35559;DHT22;21661;50.794;-1.066;2024-02-23T05:46:35;7.10;99.90
35559;DHT22;21661;50.794;-1.066;2024-02-23T05:49:02;7.10;99.90
35559;DHT22;21661;50.794;-1.066;2024-02-23T05:51:28;7.10;99.90
35559;DHT22;21661;50.794;-1.066;2024-02-23T05:53:57;7.10;99.90
35559;DHT22;21661;50.794;-1.066;2024-02-23T05:56:24;7.10;99.90
35559;DHT22;21661;50.794;-1.066;2024-02-23T05:58:53;7.20;99.90
35559;DHT22;21661;50.794;-1.066;2024-02-23T06:01:19;7.10;99.90
35559;DHT22;21661;50.794;-1.066;2024-02-23T06:03:45;7.20;99.90
35559;DHT22;21661;50.794;-1.066;2024-02-23T06:06:14;7.20;99.90
35559;DHT22;21661;50.794;-1.066;2024-02-23T06:08:40;7.20;99.90
35559;DHT22;21661;50.794;-1.066;2024-02-23T06:11:05;7.10;99.90
35559;DHT22;21661;50.794;-1.066;2024-02-23T06:13:31;7.10;99.90
35559;DHT22;21661;50.794;-1.066;2024-02-23T06:15:57;7.10;99.90
35559;DHT22;21661;50.794;-1.066;2024-02-23T06:18:22;7.10;99.90
35559;DHT22;21661;50.794;-1.066;2024-02-23T06:20:49;7.10;99.90
35559;DHT22;21661;50.794;-1.066;2024-02-23T06:23:16;7.10;99.90
35559;DHT22;21661;50.794;-1.066;2024-02-23T06:25:42;7.10;99.90
35559;DHT22;21661;50.794;-1.066;2024-02-23T06:28:07;7.10;99.90
35559;DHT22;21661;50.794;-1.066;2024-02-23T06:30:33;7.10;99.90
35559;DHT22;21661;50.794;-1.066;2024-02-23T06:32:58;7.10;99.90
35559;DHT22;21661;50.794;-1.066;2024-02-23T06:35:24;7.10;99.90
35559;DHT22;21661;50.794;-1.066;2024-02-23T06:37:50;7.20;99.90
35559;DHT22;21661;50.794;-1.066;2024-02-23T06:40:15;7.00;99.90
35559;DHT22;21661;50.794;-1.066;2024-02-23T06:42:41;7.20;99.90
35559;DHT22;21661;50.794;-1.066;2024-02-23T06:45:07;7.20;99.90
35559;DHT22;21661;50.794;-1.066;2024-02-23T06:47:33;7.20;99.90
35559;DHT22;21661;50.794;-1.066;2024-02-23T06:50:00;7.20;99.90
35559;DHT22;21661;50.794;-1.066;2024-02-23T06:52:25;7.20;99.90
35559;DHT22;21661;50.794;-1.066;2024-02-23T06:54:54;7.20;99.90
35559;DHT22;21661;50.794;-1.066;2024-02-23T06:57:19;7.20;99.90
35559;DHT22;21661;50.794;-1.066;2024-02-23T06:59:45;7.20;99.90
35559;DHT22;21661;50.794;-1.066;2024-02-23T07:02:11;7.20;99.90
35559;DHT22;21661;50.794;-1.066;2024-02-23T07:04:36;7.20;99.90
35559;DHT22;21661;50.794;-1.066;2024-02-23T07:07:02;7.20;99.90
35559;DHT22;21661;50.794;-1.066;2024-02-23T07:09:33;7.30;99.90
35559;DHT22;21661;50.794;-1.066;2024-02-23T07:11:59;7.30;99.90
35559;DHT22;21661;50.794;-1.066;2024-02-23T07:14:24;7.30;99.90
35559;DHT22;21661;50.794;-1.066;2024-02-23T07:16:50;7.30;99.90
35559;DHT22;21661;50.794;-1.066;2024-02-23T07:19:16;7.30;99.90
35559;DHT22;21661;50.794;-1.066;2024-02-23T07:21:42;7.30;99.90
35559;DHT22;21661;50.794;-1.066;2024-02-23T07:24:08;7.30;99.90
35559;DHT22;21661;50.794;-1.066;2024-02-23T07:26:33;7.30;99.90
35559;DHT22;21661;50.794;-1.066;2024-02-23T07:28:59;7.30;99.90
35559;DHT22;21661;50.794;-1.066;2024-02-23T07:31:25;7.40;99.90
35559;DHT22;21661;50.794;-1.066;2024-02-23T07:33:50;7.40;99.90
35559;DHT22;21661;50.794;-1.066;2024-02-23T07:36:17;7.50;99.90
35559;DHT22;21661;50.794;-1.066;2024-02-23T07:38:42;7.50;99.90
35559;DHT22;21661;50.794;-1.066;2024-02-23T07:41:10;7.50;99.90
35559;DHT22;21661;50.794;-1.066;2024-02-23T07:43:36;7.50;99.90
35559;DHT22;21661;50.794;-1.066;2024-02-23T07:46:02;7.60;99.90
35559;DHT22;21661;50.794;-1.066;2024-02-23T07:48:29;7.60;99.90
35559;DHT22;21661;50.794;-1.066;2024-02-23T07:50:54;7.70;99.90
35559;DHT22;21661;50.794;-1.066;2024-02-23T07:53:21;7.70;99.90
35559;DHT22;21661;50.794;-1.066;2024-02-23T07:55:46;7.70;99.90
35559;DHT22;21661;50.794;-1.066;2024-02-23T07:58:12;7.70;99.90
35559;DHT22;21661;50.794;-1.066;2024-02-23T08:00:37;7.70;99.90
35559;DHT22;21661;50.794;-1.066;2024-02-23T08:03:04;7.70;99.90
35559;DHT22;21661;50.794;-1.066;2024-02-23T08:05:30;7.70;99.90
35559;DHT22;21661;50.794;-1.066;2024-02-23T08:07:56;7.70;99.90
35559;DHT22;21661;50.794;-1.066;2024-02-23T08:10:22;7.80;99.90
35559;DHT22;21661;50.794;-1.066;2024-02-23T08:12:47;7.80;99.90
35559;DHT22;21661;50.794;-1.066;2024-02-23T08:15:13;7.80;99.90
35559;DHT22;21661;50.794;-1.066;2024-02-23T08:17:39;7.80;99.90
35559;DHT22;21661;50.794;-1.066;2024-02-23T08:20:05;7.80;99.90
35559;DHT22;21661;50.794;-1.066;2024-02-23T08:22:30;7.90;99.90
35559;DHT22;21661;50.794;-1.066;2024-02-23T08:24:56;7.90;99.90
35559;DHT22;21661;50.794;-1.066;2024-02-23T08:27:22;7.90;99.90
35559;DHT22;21661;50.794;-1.066;2024-02-23T08:29:48;7.90;99.90
35559;DHT22;21661;50.794;-1.066;2024-02-23T08:32:13;7.80;99.90
35559;DHT22;21661;50.794;-1.066;2024-02-23T08:34:39;7.90;99.90
35559;DHT22;21661;50.794;-1.066;2024-02-23T08:37:05;7.90;99.90
35559;DHT22;21661;50.794;-1.066;2024-02-23T08:39:30;8.00;99.90
35559;DHT22;21661;50.794;-1.066;2024-02-23T08:41:56;8.00;99.90
35559;DHT22;21661;50.794;-1.066;2024-02-23T08:44:22;8.00;99.90
35559;DHT22;21661;50.794;-1.066;2024-02-23T08:46:47;8.00;99.90
35559;DHT22;21661;50.794;-1.066;2024-02-23T08:49:16;8.00;99.90
35559;DHT22;21661;50.794;-1.066;2024-02-23T08:51:41;8.00;99.90
35559;DHT22;21661;50.794;-1.066;2024-02-23T08:54:07;8.10;99.90
35559;DHT22;21661;50.794;-1.066;2024-02-23T08:56:37;8.10;99.90
35559;DHT22;21661;50.794;-1.066;2024-02-23T08:59:04;8.10;99.90
35559;DHT22;21661;50.794;-1.066;2024-02-23T09:01:30;8.10;99.90
35559;DHT22;21661;50.794;-1.066;2024-02-23T09:03:55;8.20;99.90
35559;DHT22;21661;50.794;-1.066;2024-02-23T09:06:21;8.20;99.90
35559;DHT22;21661;50.794;-1.066;2024-02-23T09:08:47;8.30;99.90
35559;DHT22;21661;50.794;-1.066;2024-02-23T09:11:12;8.30;99.90
35559;DHT22;21661;50.794;-1.066;2024-02-23T09:13:40;8.30;99.90
35559;DHT22;21661;50.794;-1.066;2024-02-23T09:16:07;8.30;99.90
35559;DHT22;21661;50.794;-1.066;2024-02-23T09:18:34;8.20;99.90
35559;DHT22;21661;50.794;-1.066;2024-02-23T09:21:00;8.20;99.90
35559;DHT22;21661;50.794;-1.066;2024-02-23T09:23:26;8.30;99.90
35559;DHT22;21661;50.794;-1.066;2024-02-23T09:25:51;8.30;99.90
35559;DHT22;21661;50.794;-1.066;2024-02-23T09:28:17;8.20;99.90
35559;DHT22;21661;50.794;-1.066;2024-02-23T09:30:43;8.30;99.90
35559;DHT22;21661;50.794;-1.066;2024-02-23T09:33:08;8.30;99.90
35559;DHT22;21661;50.794;-1.066;2024-02-23T09:35:36;8.30;99.90
35559;DHT22;21661;50.794;-1.066;2024-02-23T09:38:02;8.30;99.90
35559;DHT22;21661;50.794;-1.066;2024-02-23T09:40:28;8.30;99.90
35559;DHT22;21661;50.794;-1.066;2024-02-23T09:42:58;8.30;99.90
35559;DHT22;21661;50.794;-1.066;2024-02-23T09:45:27;8.40;99.90
35559;DHT22;21661;50.794;-1.066;2024-02-23T09:47:54;8.60;99.90
35559;DHT22;21661;50.794;-1.066;2024-02-23T09:50:23;8.60;99.90
35559;DHT22;21661;50.794;-1.066;2024-02-23T09:52:49;8.70;99.90
35559;DHT22;21661;50.794;-1.066;2024-02-23T09:55:17;8.80;99.90
35559;DHT22;21661;50.794;-1.066;2024-02-23T09:57:44;8.80;99.90
35559;DHT22;21661;50.794;-1.066;2024-02-23T10:00:12;8.80;99.90
35559;DHT22;21661;50.794;-1.066;2024-02-23T10:02:37;8.90;99.90
35559;DHT22;21661;50.794;-1.066;2024-02-23T10:05:05;9.00;99.90
35559;DHT22;21661;50.794;-1.066;2024-02-23T10:07:32;9.00;99.90
35559;DHT22;21661;50.794;-1.066;2024-02-23T10:09:58;9.00;99.90
35559;DHT22;21661;50.794;-1.066;2024-02-23T10:12:24;9.10;99.90
35559;DHT22;21661;50.794;-1.066;2024-02-23T10:14:50;9.10;99.90
35559;DHT22;21661;50.794;-1.066;2024-02-23T10:17:15;9.20;99.90
35559;DHT22;21661;50.794;-1.066;2024-02-23T10:19:41;9.20;99.90
35559;DHT22;21661;50.794;-1.066;2024-02-23T10:22:07;9.20;99.90
35559;DHT22;21661;50.794;-1.066;2024-02-23T10:24:32;9.20;99.90
35559;DHT22;21661;50.794;-1.066;2024-02-23T10:26:58;9.10;99.90
35559;DHT22;21661;50.794;-1.066;2024-02-23T10:29:26;9.10;99.90
35559;DHT22;21661;50.794;-1.066;2024-02-23T10:31:51;9.00;99.90
35559;DHT22;21661;50.794;-1.066;2024-02-23T10:34:19;9.00;99.90
35559;DHT22;21661;50.794;-1.066;2024-02-23T10:36:45;9.00;99.90
35559;DHT22;21661;50.794;-1.066;2024-02-23T10:39:17;9.10;99.90
35559;DHT22;21661;50.794;-1.066;2024-02-23T10:41:47;9.10;99.90
35559;DHT22;21661;50.794;-1.066;2024-02-23T10:44:17;9.20;99.90
35559;DHT22;21661;50.794;-1.066;2024-02-23T10:46:44;9.20;99.90
35559;DHT22;21661;50.794;-1.066;2024-02-23T10:49:11;9.20;99.90
35559;DHT22;21661;50.794;-1.066;2024-02-23T10:51:39;9.20;99.90
35559;DHT22;21661;50.794;-1.066;2024-02-23T10:54:06;9.10;99.90
35559;DHT22;21661;50.794;-1.066;2024-02-23T10:56:32;9.10;99.90
35559;DHT22;21661;50.794;-1.066;2024-02-23T10:58:58;9.10;99.90
35559;DHT22;21661;50.794;-1.066;2024-02-23T11:01:24;9.10;99.90
35559;DHT22;21661;50.794;-1.066;2024-02-23T11:03:51;9.10;99.90
35559;DHT22;21661;50.794;-1.066;2024-02-23T11:06:19;9.10;99.90
35559;DHT22;21661;50.794;-1.066;2024-02-23T11:08:47;9.20;99.90
35559;DHT22;21661;50.794;-1.066;2024-02-23T11:11:16;9.10;99.90
35559;DHT22;21661;50.794;-1.066;2024-02-23T11:13:44;9.10;99.90
35559;DHT22;21661;50.794;-1.066;2024-02-23T11:16:12;9.10;99.90
35559;DHT22;21661;50.794;-1.066;2024-02-23T11:18:46;9.10;99.90
35559;DHT22;21661;50.794;-1.066;2024-02-23T11:21:12;9.10;99.90
35559;DHT22;21661;50.794;-1.066;2024-02-23T11:23:47;9.10;99.90
35559;DHT22;21661;50.794;-1.066;2024-02-23T11:26:17;9.10;99.90
35559;DHT22;21661;50.794;-1.066;2024-02-23T11:28:46;9.10;99.90
35559;DHT22;21661;50.794;-1.066;2024-02-23T11:31:13;9.10;99.90
35559;DHT22;21661;50.794;-1.066;2024-02-23T11:33:39;9.10;99.90
35559;DHT22;21661;50.794;-1.066;2024-02-23T11:36:08;9.10;99.90
35559;DHT22;21661;50.794;-1.066;2024-02-23T11:38:34;9.10;99.90
35559;DHT22;21661;50.794;-1.066;2024-02-23T11:41:01;9.10;99.90
35559;DHT22;21661;50.794;-1.066;2024-02-23T11:43:27;9.10;99.90
35559;DHT22;21661;50.794;-1.066;2024-02-23T11:45:53;9.20;99.90
35559;DHT22;21661;50.794;-1.066;2024-02-23T11:48:19;9.20;99.90
35559;DHT22;21661;50.794;-1.066;2024-02-23T11:50:45;9.20;99.90
35559;DHT22;21661;50.794;-1.066;2024-02-23T11:53:10;9.30;99.90
35559;DHT22;21661;50.794;-1.066;2024-02-23T11:55:36;9.20;99.90
35559;DHT22;21661;50.794;-1.066;2024-02-23T11:58:03;9.30;99.90
35559;DHT22;21661;50.794;-1.066;2024-02-23T12:00:28;9.30;99.90
35559;DHT22;21661;50.794;-1.066;2024-02-23T12:02:55;9.30;99.90
35559;DHT22;21661;50.794;-1.066;2024-02-23T12:05:21;9.40;99.90
35559;DHT22;21661;50.794;-1.066;2024-02-23T12:07:47;9.50;99.90
35559;DHT22;21661;50.794;-1.066;2024-02-23T12:10:13;9.60;99.90
35559;DHT22;21661;50.794;-1.066;2024-02-23T12:12:39;9.60;99.90
35559;DHT22;21661;50.794;-1.066;2024-02-23T12:15:06;9.70;99.90
35559;DHT22;21661;50.794;-1.066;2024-02-23T12:17:32;9.70;99.90
35559;DHT22;21661;50.794;-1.066;2024-02-23T12:20:01;9.70;99.90
35559;DHT22;21661;50.794;-1.066;2024-02-23T12:22:27;9.70;99.90
35559;DHT22;21661;50.794;-1.066;2024-02-23T12:24:52;9.60;99.90
35559;DHT22;21661;50.794;-1.066;2024-02-23T12:27:18;9.60;99.90
35559;DHT22;21661;50.794;-1.066;2024-02-23T12:29:52;9.70;99.90
35559;DHT22;21661;50.794;-1.066;2024-02-23T12:32:20;9.70;99.90
35559;DHT22;21661;50.794;-1.066;2024-02-23T12:34:46;9.70;99.90
35559;DHT22;21661;50.794;-1.066;2024-02-23T12:37:16;9.70;99.90
35559;DHT22;21661;50.794;-1.066;2024-02-23T12:39:42;9.70;99.90
35559;DHT22;21661;50.794;-1.066;2024-02-23T12:42:08;9.70;99.90
35559;DHT22;21661;50.794;-1.066;2024-02-23T12:44:34;9.80;99.90
35559;DHT22;21661;50.794;-1.066;2024-02-23T12:47:00;9.80;99.90
35559;DHT22;21661;50.794;-1.066;2024-02-23T12:49:26;9.80;99.90
35559;DHT22;21661;50.794;-1.066;2024-02-23T12:51:52;9.70;99.90
35559;DHT22;21661;50.794;-1.066;2024-02-23T12:54:17;9.60;99.90
35559;DHT22;21661;50.794;-1.066;2024-02-23T12:56:43;9.50;99.90
35559;DHT22;21661;50.794;-1.066;2024-02-23T12:59:09;9.50;99.90
35559;DHT22;21661;50.794;-1.066;2024-02-23T13:01:38;9.50;99.90
35559;DHT22;21661;50.794;-1.066;2024-02-23T13:04:05;9.50;99.90
35559;DHT22;21661;50.794;-1.066;2024-02-23T13:06:38;9.60;99.90
35559;DHT22;21661;50.794;-1.066;2024-02-23T13:09:05;9.50;99.90
35559;DHT22;21661;50.794;-1.066;2024-02-23T13:11:33;9.60;99.90
35559;DHT22;21661;50.794;-1.066;2024-02-23T13:14:00;9.60;99.90
35559;DHT22;21661;50.794;-1.066;2024-02-23T13:16:25;9.60;99.90
35559;DHT22;21661;50.794;-1.066;2024-02-23T13:18:51;9.50;99.90
35559;DHT22;21661;50.794;-1.066;2024-02-23T13:21:18;9.50;99.90
35559;DHT22;21661;50.794;-1.066;2024-02-23T13:23:44;9.30;99.90
35559;DHT22;21661;50.794;-1.066;2024-02-23T13:26:09;9.40;99.90
35559;DHT22;21661;50.794;-1.066;2024-02-23T13:28:38;9.40;99.90
35559;DHT22;21661;50.794;-1.066;2024-02-23T13:31:04;9.30;99.90
35559;DHT22;21661;50.794;-1.066;2024-02-23T13:33:30;9.20;99.90
35559;DHT22;21661;50.794;-1.066;2024-02-23T13:35:55;9.20;99.90
35559;DHT22;21661;50.794;-1.066;2024-02-23T13:38:21;9.10;99.90
35559;DHT22;21661;50.794;-1.066;2024-02-23T13:40:47;9.10;99.90
35559;DHT22;21661;50.794;-1.066;2024-02-23T13:43:13;9.10;99.90
35559;DHT22;21661;50.794;-1.066;2024-02-23T13:45:51;9.10;99.90
35559;DHT22;21661;50.794;-1.066;2024-02-23T13:48:18;9.20;99.90
35559;DHT22;21661;50.794;-1.066;2024-02-23T13:50:45;9.20;99.90
35559;DHT22;21661;50.794;-1.066;2024-02-23T13:53:11;9.30;99.90
35559;DHT22;21661;50.794;-1.066;2024-02-23T13:55:38;9.30;99.90
35559;DHT22;21661;50.794;-1.066;2024-02-23T13:58:04;9.30;99.90
35559;DHT22;21661;50.794;-1.066;2024-02-23T14:00:29;9.30;99.90
35559;DHT22;21661;50.794;-1.066;2024-02-23T14:02:55;9.30;99.90
35559;DHT22;21661;50.794;-1.066;2024-02-23T14:05:21;9.30;99.90
35559;DHT22;21661;50.794;-1.066;2024-02-23T14:07:47;9.30;99.90
35559;DHT22;21661;50.794;-1.066;2024-02-23T14:10:13;9.40;99.90
35559;DHT22;21661;50.794;-1.066;2024-02-23T14:12:40;9.40;99.90
35559;DHT22;21661;50.794;-1.066;2024-02-23T14:15:06;9.40;99.90
35559;DHT22;21661;50.794;-1.066;2024-02-23T14:17:32;9.50;99.90
35559;DHT22;21661;50.794;-1.066;2024-02-23T14:20:00;9.60;99.90
35559;DHT22;21661;50.794;-1.066;2024-02-23T14:22:25;9.60;99.90
35559;DHT22;21661;50.794;-1.066;2024-02-23T14:24:53;9.60;99.90
35559;DHT22;21661;50.794;-1.066;2024-02-23T14:27:19;9.60;99.90
35559;DHT22;21661;50.794;-1.066;2024-02-23T14:29:45;9.60;99.90
35559;DHT22;21661;50.794;-1.066;2024-02-23T14:32:15;9.50;99.90
35559;DHT22;21661;50.794;-1.066;2024-02-23T14:34:43;9.40;99.90
35559;DHT22;21661;50.794;-1.066;2024-02-23T14:37:09;9.40;99.90
35559;DHT22;21661;50.794;-1.066;2024-02-23T14:39:34;9.40;99.90
35559;DHT22;21661;50.794;-1.066;2024-02-23T14:42:01;9.40;99.90
35559;DHT22;21661;50.794;-1.066;2024-02-23T14:44:26;9.40;99.90
35559;DHT22;21661;50.794;-1.066;2024-02-23T14:46:52;9.40;99.90
35559;DHT22;21661;50.794;-1.066;2024-02-23T14:49:18;9.40;99.90
35559;DHT22;21661;50.794;-1.066;2024-02-23T14:51:44;9.30;99.90
35559;DHT22;21661;50.794;-1.066;2024-02-23T14:54:12;9.30;99.90
35559;DHT22;21661;50.794;-1.066;2024-02-23T14:56:38;9.30;99.90
35559;DHT22;21661;50.794;-1.066;2024-02-23T14:59:06;9.20;99.90
35559;DHT22;21661;50.794;-1.066;2024-02-23T15:01:36;9.20;99.90
35559;DHT22;21661;50.794;-1.066;2024-02-23T15:04:02;9.20;99.90
35559;DHT22;21661;50.794;-1.066;2024-02-23T15:06:28;9.20;99.90
35559;DHT22;21661;50.794;-1.066;2024-02-23T15:08:54;9.20;99.90
35559;DHT22;21661;50.794;-1.066;2024-02-23T15:11:19;9.10;99.90
35559;DHT22;21661;50.794;-1.066;2024-02-23T15:13:45;9.10;99.90
35559;DHT22;21661;50.794;-1.066;2024-02-23T15:16:11;9.10;99.90
35559;DHT22;21661;50.794;-1.066;2024-02-23T15:18:36;9.10;99.90
35559;DHT22;21661;50.794;-1.066;2024-02-23T15:21:02;9.00;99.90
35559;DHT22;21661;50.794;-1.066;2024-02-23T15:23:28;9.00;99.90